Holmen, Wisconsin
Current Conditions -  °F | °C
As of 2:53 AM on Saturday 29 Nov 2014 (Local Time) from KLSE Reporting Station
Clear Clear  
Wind Chill: 18°   Ceiling: Unl
Heat Index: 25°   Visibility: 7mi
Dew Point: 21°   Wind: 6mph
Humidity: 85%   Direction: 150°SSE
Pressure: 29.66"   Gusts: NA
Location:  43.96°N, 91.26°W
Report Text: KLSE 290853Z AUTO 15005KT 7SM CLR M04/M06 A2966 RMK AO2 SLP059 T10391061 56030
Loading
Personal Weather Stations






























Interactive Weather Map New forecast layout! Learn more

10-Day Weather Forecast

Advertisements
Track Severe Weather on mobile